createdAt,value
2022-09-15T00:00:57.191Z,82.00
2022-09-15T00:03:24.099Z,81.90
2022-09-15T00:05:53.681Z,82.50
2022-09-15T00:08:21.407Z,82.30
2022-09-15T00:10:51.284Z,82.30
2022-09-15T00:13:18.577Z,82.40
2022-09-15T00:15:45.378Z,82.70
2022-09-15T00:18:12.515Z,82.30
2022-09-15T00:20:44.092Z,82.40
2022-09-15T00:23:12.885Z,82.30
2022-09-15T00:25:48.577Z,82.50
2022-09-15T00:28:16.859Z,82.60
2022-09-15T00:30:46.819Z,82.30
2022-09-15T00:33:15.107Z,81.70
2022-09-15T00:35:44.381Z,81.20
2022-09-15T00:38:12.600Z,81.00
2022-09-15T00:40:50.063Z,81.20
2022-09-15T00:43:18.581Z,81.40
2022-09-15T00:45:45.714Z,81.60
2022-09-15T00:48:17.263Z,81.00
2022-09-15T00:50:49.286Z,80.70
2022-09-15T00:53:17.630Z,80.50
2022-09-15T00:55:49.809Z,80.30
2022-09-15T00:58:22.983Z,78.90
2022-09-15T01:00:56.527Z,78.80
2022-09-15T01:03:25.301Z,77.80
2022-09-15T01:05:56.514Z,77.40
2022-09-15T01:08:36.399Z,77.30
2022-09-15T01:11:03.616Z,76.30
2022-09-15T01:13:30.691Z,75.80
2022-09-15T01:16:15.486Z,75.30
2022-09-15T01:19:03.168Z,75.00
2022-09-15T01:21:38.827Z,74.50
2022-09-15T01:24:44.931Z,74.50
2022-09-15T01:27:43.144Z,73.70
2022-09-15T01:30:15.477Z,73.50
2022-09-15T01:33:20.035Z,73.00
2022-09-15T01:35:57.530Z,72.70
2022-09-15T01:38:51.668Z,72.20
2022-09-15T01:41:45.266Z,72.10
2022-09-15T01:44:24.840Z,72.10
2022-09-15T01:47:13.798Z,72.10
2022-09-15T01:49:45.045Z,72.40
2022-09-15T01:52:14.550Z,72.40
2022-09-15T01:54:48.836Z,72.50
2022-09-15T01:57:21.666Z,72.70
2022-09-15T01:59:50.012Z,72.20
2022-09-15T02:02:35.626Z,71.80
2022-09-15T02:05:06.298Z,71.90
2022-09-15T02:07:51.811Z,71.50
2022-09-15T02:10:35.275Z,71.50
2022-09-15T02:13:17.135Z,71.60
2022-09-15T02:15:50.512Z,71.60
2022-09-15T02:18:35.409Z,71.20
2022-09-15T02:21:12.700Z,71.30
2022-09-15T02:23:43.940Z,70.60
2022-09-15T02:26:16.816Z,71.00
2022-09-15T02:28:46.012Z,70.50
2022-09-15T02:31:16.477Z,69.90
2022-09-15T02:33:49.660Z,70.20
2022-09-15T02:36:19.854Z,69.50
2022-09-15T02:39:05.001Z,70.30
2022-09-15T02:41:33.926Z,69.90
2022-09-15T02:44:00.713Z,70.50
2022-09-15T02:46:28.266Z,70.20
2022-09-15T02:48:54.952Z,70.20
2022-09-15T02:51:21.849Z,70.40
2022-09-15T02:53:48.884Z,70.30
2022-09-15T02:56:16.562Z,70.70
2022-09-15T02:58:43.930Z,70.60
2022-09-15T03:01:15.714Z,71.10
2022-09-15T03:03:44.094Z,71.30
2022-09-15T03:06:18.149Z,71.00
2022-09-15T03:08:49.684Z,71.10
2022-09-15T03:11:17.960Z,71.40
2022-09-15T03:13:45.182Z,71.30
2022-09-15T03:16:14.203Z,71.30
2022-09-15T03:18:41.723Z,70.60
2022-09-15T03:21:11.620Z,71.10
2022-09-15T03:23:38.700Z,70.60
2022-09-15T03:26:06.202Z,70.90
2022-09-15T03:28:32.885Z,70.90
2022-09-15T03:30:59.810Z,71.10
2022-09-15T03:33:26.567Z,71.00
2022-09-15T03:35:53.694Z,71.70
2022-09-15T03:38:20.807Z,71.30
2022-09-15T03:40:59.302Z,71.30
2022-09-15T03:43:27.136Z,71.60
2022-09-15T03:45:55.119Z,71.80
2022-09-15T03:48:22.876Z,71.60
2022-09-15T03:50:50.331Z,71.60
2022-09-15T03:53:17.825Z,72.00
2022-09-15T03:55:45.612Z,71.90
2022-09-15T03:58:13.573Z,71.80
2022-09-15T04:00:41.384Z,71.80
2022-09-15T04:03:08.853Z,72.40
2022-09-15T04:05:36.048Z,72.90
2022-09-15T04:08:02.886Z,73.30
2022-09-15T04:10:29.582Z,72.60
2022-09-15T04:12:56.460Z,72.90
2022-09-15T04:15:23.722Z,72.20
2022-09-15T04:17:50.566Z,72.50
2022-09-15T04:20:17.564Z,72.40
2022-09-15T04:22:45.181Z,71.50
2022-09-15T04:25:12.145Z,71.80
2022-09-15T04:27:38.928Z,71.70
2022-09-15T04:30:07.714Z,71.50
2022-09-15T04:32:35.696Z,71.30
2022-09-15T04:35:03.952Z,71.80
2022-09-15T04:37:31.137Z,72.00
2022-09-15T04:39:58.190Z,71.40
2022-09-15T04:42:25.075Z,70.70
2022-09-15T04:44:51.879Z,70.70
2022-09-15T04:47:19.261Z,70.70
2022-09-15T04:49:46.750Z,71.00
2022-09-15T04:52:13.488Z,70.50
2022-09-15T04:54:40.245Z,70.80
2022-09-15T04:57:07.138Z,69.50
2022-09-15T04:59:34.019Z,69.60
2022-09-15T05:02:00.804Z,70.50
2022-09-15T05:04:27.773Z,70.50
2022-09-15T05:06:54.458Z,69.70
2022-09-15T05:09:21.258Z,69.40
2022-09-15T05:11:47.922Z,69.20
2022-09-15T05:14:14.648Z,69.20
2022-09-15T05:16:41.452Z,68.20
2022-09-15T05:19:09.928Z,68.10
2022-09-15T05:21:36.609Z,68.00
2022-09-15T05:24:03.584Z,68.70
2022-09-15T05:26:30.697Z,69.20
2022-09-15T05:28:57.876Z,68.70
2022-09-15T05:31:27.355Z,68.10
2022-09-15T05:33:54.598Z,68.10
2022-09-15T05:36:25.315Z,67.10
2022-09-15T05:38:59.014Z,67.00
2022-09-15T05:41:27.349Z,67.10
2022-09-15T05:43:56.960Z,67.20
2022-09-15T05:46:26.154Z,67.10
2022-09-15T05:48:56.362Z,66.50
2022-09-15T05:51:23.295Z,66.30
2022-09-15T05:53:50.967Z,65.30
2022-09-15T05:56:18.413Z,65.10
2022-09-15T05:58:47.465Z,64.70
2022-09-15T06:01:19.890Z,64.50
2022-09-15T06:03:47.981Z,65.00
2022-09-15T06:06:15.341Z,64.60
2022-09-15T06:08:45.803Z,64.60
2022-09-15T06:11:20.559Z,64.00
2022-09-15T06:13:47.897Z,63.70
2022-09-15T06:16:19.372Z,64.00
2022-09-15T06:18:48.185Z,63.50
2022-09-15T06:21:23.689Z,63.20
2022-09-15T06:23:59.083Z,63.90
2022-09-15T06:26:27.167Z,62.80
2022-09-15T06:29:01.962Z,62.90
2022-09-15T06:31:31.507Z,63.20
2022-09-15T06:33:59.112Z,62.80
2022-09-15T06:36:28.491Z,63.60
2022-09-15T06:38:55.865Z,63.60
2022-09-15T06:41:22.648Z,63.20
2022-09-15T06:43:49.646Z,62.60
2022-09-15T06:46:19.074Z,62.40
2022-09-15T06:48:48.511Z,62.20
2022-09-15T06:51:17.978Z,61.90
2022-09-15T06:53:45.572Z,63.80
2022-09-15T06:56:22.783Z,62.60
2022-09-15T06:58:49.983Z,63.00
2022-09-15T07:01:22.523Z,62.80
2022-09-15T07:03:49.702Z,61.60
2022-09-15T07:06:16.730Z,62.20
2022-09-15T07:08:44.187Z,62.10
2022-09-15T07:11:11.300Z,61.80
2022-09-15T07:13:38.573Z,62.00
2022-09-15T07:16:07.847Z,61.30
2022-09-15T07:18:39.703Z,61.10
2022-09-15T07:21:14.360Z,61.30
2022-09-15T07:23:41.995Z,60.70
2022-09-15T07:26:16.480Z,61.10
2022-09-15T07:28:45.714Z,60.10
2022-09-15T07:31:15.414Z,61.00
2022-09-15T07:33:42.413Z,61.30
2022-09-15T07:36:10.069Z,60.90
2022-09-15T07:38:41.552Z,59.80
2022-09-15T07:41:11.911Z,60.50
2022-09-15T07:43:39.104Z,61.20
2022-09-15T07:46:06.925Z,62.10
2022-09-15T07:48:33.819Z,62.90
2022-09-15T07:51:00.497Z,63.10
2022-09-15T07:53:30.836Z,64.00
2022-09-15T07:55:57.708Z,63.00
2022-09-15T07:58:25.165Z,62.90
2022-09-15T08:00:52.192Z,62.10
2022-09-15T08:03:18.935Z,61.50
2022-09-15T08:05:46.207Z,62.10
2022-09-15T08:08:13.192Z,59.80
2022-09-15T08:10:41.254Z,58.40
2022-09-15T08:13:08.520Z,57.80
2022-09-15T08:15:37.373Z,57.40
2022-09-15T08:18:04.836Z,56.90
2022-09-15T08:20:31.784Z,55.10
2022-09-15T08:22:59.338Z,54.40
2022-09-15T08:25:26.145Z,55.20
2022-09-15T08:27:54.595Z,54.10
2022-09-15T08:30:22.288Z,53.00
2022-09-15T08:32:49.418Z,52.40
2022-09-15T08:35:17.696Z,52.10
2022-09-15T08:37:44.645Z,51.20
2022-09-15T08:40:22.292Z,51.10
2022-09-15T08:42:53.224Z,50.70
2022-09-15T08:45:35.575Z,50.10
2022-09-15T08:48:04.770Z,48.60
2022-09-15T08:50:42.259Z,47.30
2022-09-15T08:53:47.110Z,46.10
2022-09-15T08:56:18.321Z,46.70
2022-09-15T08:58:46.121Z,45.80
2022-09-15T09:01:18.995Z,45.20
2022-09-15T09:03:58.171Z,44.20
2022-09-15T09:06:43.111Z,43.60
2022-09-15T09:09:23.252Z,43.80
2022-09-15T09:11:59.013Z,42.70
2022-09-15T09:14:59.338Z,42.10
2022-09-15T09:17:41.527Z,42.10
2022-09-15T09:20:45.850Z,42.60
2022-09-15T09:23:16.999Z,43.40
2022-09-15T09:25:44.609Z,44.30
2022-09-15T09:28:26.407Z,44.90
2022-09-15T09:30:53.561Z,44.40
2022-09-15T09:33:30.360Z,44.30
2022-09-15T09:36:01.338Z,44.50
2022-09-15T09:38:36.764Z,44.80
2022-09-15T09:41:14.959Z,44.50
2022-09-15T09:43:43.810Z,44.80
2022-09-15T09:46:16.428Z,44.90
2022-09-15T09:49:23.424Z,44.60
2022-09-15T09:51:52.169Z,44.80
2022-09-15T09:54:21.420Z,45.10
2022-09-15T09:56:50.272Z,44.90
2022-09-15T09:59:40.130Z,44.80
2022-09-15T10:02:19.076Z,44.70
2022-09-15T10:04:47.239Z,44.40
2022-09-15T10:07:17.457Z,44.00
2022-09-15T10:09:58.816Z,44.30
2022-09-15T10:12:32.916Z,44.60
2022-09-15T10:15:05.253Z,44.80
2022-09-15T10:17:41.833Z,44.70
2022-09-15T10:20:51.144Z,44.90
2022-09-15T10:23:17.862Z,45.20
2022-09-15T10:26:01.358Z,44.50
2022-09-15T10:28:28.578Z,43.30
2022-09-15T10:31:28.663Z,43.60
2022-09-15T10:33:55.529Z,43.40
2022-09-15T10:36:32.179Z,43.60
2022-09-15T10:39:15.220Z,44.20
2022-09-15T10:42:17.411Z,44.30
2022-09-15T10:44:52.406Z,44.50
2022-09-15T10:47:50.000Z,45.00
2022-09-15T10:50:41.404Z,46.60
2022-09-15T10:53:19.272Z,46.00
2022-09-15T10:56:31.087Z,46.10
2022-09-15T10:59:32.430Z,46.20
2022-09-15T11:02:26.396Z,46.40
2022-09-15T11:04:59.263Z,46.60
2022-09-15T11:08:03.082Z,46.90
2022-09-15T11:10:35.355Z,46.20
2022-09-15T11:13:13.840Z,46.20
2022-09-15T11:15:43.841Z,47.20
2022-09-15T11:18:41.598Z,48.20
2022-09-15T11:21:11.335Z,48.80
2022-09-15T11:23:44.142Z,50.40
2022-09-15T11:26:17.036Z,50.10
2022-09-15T11:28:53.773Z,48.70
2022-09-15T11:31:24.363Z,48.30
2022-09-15T11:34:05.156Z,47.30
2022-09-15T11:36:49.301Z,46.40
2022-09-15T11:39:31.066Z,46.80
2022-09-15T11:42:09.434Z,46.90
2022-09-15T11:44:39.823Z,46.40
2022-09-15T11:47:36.433Z,46.30
2022-09-15T11:50:18.634Z,45.90
2022-09-15T11:53:00.659Z,44.90
2022-09-15T11:55:49.045Z,46.70
2022-09-15T11:58:29.461Z,50.30
2022-09-15T12:01:02.601Z,52.50
2022-09-15T12:03:32.671Z,54.30
2022-09-15T12:06:08.490Z,55.00
2022-09-15T12:09:00.864Z,55.30
2022-09-15T12:11:30.512Z,55.00
2022-09-15T12:13:59.746Z,54.20
2022-09-15T12:16:28.275Z,54.10
2022-09-15T12:19:03.168Z,53.80
2022-09-15T12:22:06.654Z,53.50
2022-09-15T12:25:01.098Z,53.70
2022-09-15T12:27:28.611Z,56.70
2022-09-15T12:29:59.861Z,59.80
2022-09-15T12:32:29.039Z,61.40
2022-09-15T12:35:16.177Z,62.60
2022-09-15T12:37:48.160Z,62.80
2022-09-15T12:40:29.890Z,63.20
2022-09-15T12:42:57.620Z,63.40
2022-09-15T12:45:36.260Z,60.60
2022-09-15T12:48:18.927Z,60.70
2022-09-15T12:50:54.821Z,60.80
2022-09-15T12:53:23.055Z,59.90
2022-09-15T12:56:02.349Z,58.00
2022-09-15T12:58:41.829Z,58.70
2022-09-15T13:01:23.739Z,57.90
2022-09-15T13:03:50.842Z,57.90
2022-09-15T13:06:25.021Z,56.20
2022-09-15T13:08:55.728Z,57.70
2022-09-15T13:11:37.457Z,58.00
2022-09-15T13:14:04.536Z,57.00
2022-09-15T13:16:37.034Z,56.70
2022-09-15T13:19:18.943Z,54.20
2022-09-15T13:21:58.421Z,54.20
2022-09-15T13:25:01.375Z,52.80
2022-09-15T13:27:42.024Z,54.20
2022-09-15T13:30:24.113Z,56.90
2022-09-15T13:33:16.903Z,59.10
2022-09-15T13:38:39.978Z,59.60
2022-09-15T13:41:28.286Z,61.30
2022-09-15T13:44:35.442Z,64.70
2022-09-15T13:47:11.211Z,69.40
2022-09-15T13:50:13.251Z,72.30
2022-09-15T13:53:01.580Z,76.10
2022-09-15T13:55:38.593Z,79.90
2022-09-15T14:01:02.193Z,90.00
2022-09-15T14:03:42.253Z,91.60
2022-09-15T14:06:20.569Z,90.80
2022-09-15T14:08:51.854Z,89.30
2022-09-15T14:11:27.991Z,88.40
2022-09-15T14:13:56.109Z,90.10
2022-09-15T14:16:29.068Z,90.20
2022-09-15T14:18:57.917Z,91.60
2022-09-15T14:21:30.888Z,91.30
2022-09-15T14:24:00.510Z,91.90
2022-09-15T14:26:29.504Z,90.30
2022-09-15T14:29:02.211Z,89.30
2022-09-15T14:31:43.301Z,86.40
2022-09-15T14:34:23.502Z,86.40
2022-09-15T14:37:07.597Z,88.10
2022-09-15T14:39:37.635Z,87.30
2022-09-15T14:42:29.654Z,87.30
2022-09-15T14:48:11.288Z,86.50
2022-09-15T14:50:38.014Z,87.50
2022-09-15T14:53:07.621Z,88.40
2022-09-15T14:55:40.423Z,83.60
2022-09-15T14:58:16.056Z,83.10
2022-09-15T15:01:00.301Z,84.40
2022-09-15T15:03:30.083Z,85.40
2022-09-15T15:06:12.763Z,88.00
2022-09-15T15:09:12.188Z,90.40
2022-09-15T15:11:41.807Z,91.70
2022-09-15T15:14:09.818Z,91.70
2022-09-15T15:16:36.990Z,92.80
2022-09-15T15:19:04.325Z,93.40
2022-09-15T15:21:43.664Z,93.60
2022-09-15T15:24:13.395Z,93.20
2022-09-15T15:26:42.235Z,93.10
2022-09-15T15:29:38.356Z,93.10
2022-09-15T15:32:16.374Z,93.30
2022-09-15T15:34:59.769Z,92.90
2022-09-15T15:37:32.517Z,92.20
2022-09-15T15:40:02.258Z,92.60
2022-09-15T15:42:29.511Z,92.50
2022-09-15T15:45:23.391Z,92.80
2022-09-15T15:47:50.250Z,92.90
2022-09-15T15:50:22.856Z,92.10
2022-09-15T15:52:50.249Z,91.90
2022-09-15T15:55:25.081Z,92.60
2022-09-15T15:57:54.169Z,92.70
2022-09-15T16:00:25.783Z,91.50
2022-09-15T16:02:53.222Z,90.30
2022-09-15T16:05:22.193Z,90.30
2022-09-15T16:07:51.143Z,89.20
2022-09-15T16:10:21.517Z,88.00
2022-09-15T16:12:48.303Z,86.10
2022-09-15T16:15:18.825Z,84.40
2022-09-15T16:17:47.128Z,85.10
2022-09-15T16:20:16.129Z,84.50
2022-09-15T16:22:43.418Z,84.20
2022-09-15T16:25:21.063Z,83.30
2022-09-15T16:27:47.811Z,81.00
2022-09-15T16:30:14.632Z,80.60
2022-09-15T16:32:41.351Z,79.40
2022-09-15T16:35:43.465Z,79.70
2022-09-15T16:38:10.265Z,77.40
2022-09-15T16:40:37.597Z,78.30
2022-09-15T16:43:08.814Z,76.80
2022-09-15T16:45:40.514Z,77.10
2022-09-15T16:48:08.864Z,76.20
2022-09-15T16:50:37.787Z,76.80
2022-09-15T16:53:06.760Z,76.60
2022-09-15T16:55:33.434Z,76.50
2022-09-15T16:58:00.176Z,77.20
2022-09-15T17:00:28.693Z,77.40
2022-09-15T17:02:55.534Z,77.60
2022-09-15T17:05:52.850Z,75.70
2022-09-15T17:08:27.035Z,73.40
2022-09-15T17:10:59.732Z,74.20
2022-09-15T17:13:30.332Z,75.20
2022-09-15T17:15:58.312Z,76.00
2022-09-15T17:18:25.834Z,76.60
2022-09-15T17:20:53.117Z,77.50
2022-09-15T17:23:31.532Z,78.20
2022-09-15T17:26:01.134Z,77.40
2022-09-15T17:28:30.271Z,79.00
2022-09-15T17:31:02.286Z,80.00
2022-09-15T17:33:31.122Z,80.20
2022-09-15T17:35:58.715Z,80.90
2022-09-15T17:38:25.641Z,82.60
2022-09-15T17:40:55.132Z,84.90
2022-09-15T17:43:25.614Z,86.00
2022-09-15T17:45:52.986Z,85.60
2022-09-15T17:48:20.435Z,85.00
2022-09-15T17:50:48.703Z,85.30
2022-09-15T17:53:26.666Z,88.80
2022-09-15T17:55:54.630Z,90.00
2022-09-15T17:58:22.462Z,89.90
2022-09-15T18:00:50.362Z,89.10
2022-09-15T18:03:29.595Z,86.50
2022-09-15T18:05:58.982Z,85.70
2022-09-15T18:08:26.731Z,85.40
2022-09-15T18:10:53.772Z,86.20
2022-09-15T18:13:23.496Z,85.80
2022-09-15T18:15:50.543Z,85.20
2022-09-15T18:18:20.105Z,84.30
2022-09-15T18:20:47.469Z,82.60
2022-09-15T18:23:17.080Z,82.40
2022-09-15T18:25:44.738Z,81.70
2022-09-15T18:28:11.564Z,82.20
2022-09-15T18:30:40.767Z,82.40
2022-09-15T18:33:22.162Z,81.00
2022-09-15T18:35:52.681Z,81.50
2022-09-15T18:38:20.610Z,82.20
2022-09-15T18:40:49.482Z,82.70
2022-09-15T18:43:17.127Z,82.00
2022-09-15T18:45:44.299Z,83.10
2022-09-15T18:48:13.112Z,82.50
2022-09-15T18:50:41.067Z,82.00
2022-09-15T18:53:07.921Z,82.40
2022-09-15T18:55:34.741Z,83.40
2022-09-15T18:58:02.684Z,83.30
2022-09-15T19:00:30.034Z,83.70
2022-09-15T19:03:02.351Z,83.70
2022-09-15T19:05:30.573Z,83.50
2022-09-15T19:07:57.727Z,82.50
2022-09-15T19:10:26.694Z,82.60
2022-09-15T19:12:54.273Z,82.20
2022-09-15T19:15:23.734Z,82.10
2022-09-15T19:17:50.822Z,82.00
2022-09-15T19:20:17.728Z,81.70
2022-09-15T19:22:44.430Z,81.30
2022-09-15T19:25:11.730Z,81.00
2022-09-15T19:27:39.482Z,81.30
2022-09-15T19:30:10.000Z,81.90
2022-09-15T19:32:37.739Z,81.60
2022-09-15T19:35:05.039Z,82.80
2022-09-15T19:37:31.716Z,83.00
2022-09-15T19:39:58.530Z,82.90
2022-09-15T19:42:25.289Z,82.80
2022-09-15T19:44:52.040Z,83.00
2022-09-15T19:47:18.817Z,83.00
2022-09-15T19:49:45.530Z,82.60
2022-09-15T19:52:12.898Z,83.30
2022-09-15T19:54:39.724Z,83.30
2022-09-15T19:57:06.520Z,83.10
2022-09-15T19:59:33.256Z,83.30
2022-09-15T20:02:01.419Z,83.50
2022-09-15T20:04:28.728Z,84.30
2022-09-15T20:06:55.450Z,84.00
2022-09-15T20:09:22.629Z,84.10
2022-09-15T20:11:49.522Z,83.80
2022-09-15T20:14:16.480Z,83.70
2022-09-15T20:16:43.247Z,83.00
2022-09-15T20:19:10.218Z,83.30
2022-09-15T20:21:49.842Z,83.00
2022-09-15T20:24:18.956Z,83.20
2022-09-15T20:26:45.679Z,83.10
2022-09-15T20:29:12.550Z,83.50
2022-09-15T20:31:39.356Z,83.30
2022-09-15T20:34:06.243Z,83.20
2022-09-15T20:36:36.429Z,83.10
2022-09-15T20:39:08.774Z,82.50
2022-09-15T20:41:35.724Z,83.30
2022-09-15T20:44:02.618Z,84.40
2022-09-15T20:46:31.250Z,84.50
2022-09-15T20:48:57.962Z,84.30
2022-09-15T20:51:27.936Z,85.70
2022-09-15T20:53:56.266Z,86.00
2022-09-15T20:56:25.622Z,86.80
2022-09-15T20:58:58.589Z,86.60
2022-09-15T21:01:33.544Z,86.50
2022-09-15T21:04:00.526Z,86.30
2022-09-15T21:06:28.453Z,86.30
2022-09-15T21:08:56.675Z,86.20
2022-09-15T21:11:26.161Z,86.00
2022-09-15T21:13:52.907Z,85.70
2022-09-15T21:16:22.666Z,86.90
2022-09-15T21:18:50.413Z,87.40
2022-09-15T21:21:23.113Z,88.20
2022-09-15T21:23:53.368Z,88.00
2022-09-15T21:26:25.562Z,88.10
2022-09-15T21:28:53.438Z,88.70
2022-09-15T21:31:23.370Z,89.30
2022-09-15T21:33:51.768Z,89.60
2022-09-15T21:36:22.131Z,90.40
2022-09-15T21:38:54.241Z,90.60
2022-09-15T21:41:23.595Z,90.40
2022-09-15T21:43:55.279Z,90.30
2022-09-15T21:46:24.479Z,90.30
2022-09-15T21:48:51.798Z,90.10
2022-09-15T21:51:24.568Z,90.00
2022-09-15T21:53:56.374Z,90.10
2022-09-15T21:56:23.791Z,89.60
2022-09-15T21:58:50.638Z,89.10
2022-09-15T22:01:20.235Z,88.60
2022-09-15T22:03:54.659Z,89.20
2022-09-15T22:06:27.515Z,89.40
2022-09-15T22:08:54.877Z,88.80
2022-09-15T22:11:22.092Z,88.90
2022-09-15T22:13:48.870Z,89.90
2022-09-15T22:16:18.284Z,90.20
2022-09-15T22:18:45.832Z,90.40
2022-09-15T22:21:18.271Z,90.30
2022-09-15T22:23:46.628Z,90.30
2022-09-15T22:26:16.095Z,90.20
2022-09-15T22:28:43.075Z,90.50
2022-09-15T22:31:12.125Z,90.90
2022-09-15T22:33:42.412Z,90.80
2022-09-15T22:36:17.524Z,90.50
2022-09-15T22:38:45.661Z,88.70
2022-09-15T22:41:15.206Z,88.30
2022-09-15T22:43:43.735Z,88.00
2022-09-15T22:46:11.189Z,87.60
2022-09-15T22:48:43.016Z,86.80
2022-09-15T22:51:10.734Z,87.20
2022-09-15T22:53:37.433Z,86.80
2022-09-15T22:56:08.153Z,86.20
2022-09-15T22:58:35.848Z,86.80
2022-09-15T23:01:11.319Z,87.10
2022-09-15T23:03:38.550Z,86.70
2022-09-15T23:06:06.119Z,86.70
2022-09-15T23:08:33.598Z,86.10
2022-09-15T23:11:06.247Z,85.90
2022-09-15T23:13:33.207Z,85.20
2022-09-15T23:15:59.990Z,84.70
2022-09-15T23:18:27.314Z,84.00
2022-09-15T23:21:07.285Z,84.00
2022-09-15T23:23:35.922Z,83.80
2022-09-15T23:26:04.298Z,83.90
2022-09-15T23:28:31.658Z,83.40
2022-09-15T23:30:59.569Z,83.70
2022-09-15T23:33:29.177Z,84.50
2022-09-15T23:35:58.153Z,85.00
2022-09-15T23:38:25.184Z,84.40
2022-09-15T23:40:51.874Z,84.70
2022-09-15T23:43:18.680Z,84.80
2022-09-15T23:45:46.023Z,85.10
2022-09-15T23:48:14.274Z,85.00
2022-09-15T23:50:41.315Z,85.10
2022-09-15T23:53:08.163Z,85.00
2022-09-15T23:55:35.659Z,84.90
2022-09-15T23:58:03.206Z,84.80
